Terminal Aerodrome Forecast
Issued by NWS Mt. Holly, NJ

Home | Current Version | Previous Version | Text Only | Print | Product List | Glossary On
Versions: 1 2 3 4 5 6 7 8 9 10 11 12 13
872
FTUS41 KPHI 072340
TAFRDG
TAF
KRDG 072340Z 0800/0824 01005KT P6SM BKN200
     FM080900 03006KT P6SM OVC060
     FM081600 05007KT P6SM OVC200
     FM082200 10006KT P6SM OVC025=

USA.gov is the U.S. government's official web portal to all federal, state and local government web resources and services.